• Join FlightAware (Why Join?)
  • Login
  • US Flag 
06:14AM EDT


 

Airport Tracker/Info


-or-


 

Live Flight TrackerFlight Track Log ✈ ASA870 ✈ 04-May-2012 ✈ PANC - PHNL

Flight Track Log - Related Links

Times and Time Zones

All times are in EDT time to prevent confusion due to time zone crossing. See the ASA870 flight status page for this flight to view local times or setup timezone preferences in your user account.

Time Position Orientation Groundspeed Altitude Reporting Facility
EDT Latitude Longitude Course Direction KTS MPH feet Rate Location/Type
06:25PM 61.0395 -150.1272 318° Northwest  Level FlightAware Approximate
06:26PM 60.9327 -150.2340 345° North  Level FlightAware Approximate
06:27PM 60.8151 -150.2664 352° North  Level FlightAware Approximate
06:28PM 60.7394 -150.4275 North  Level FlightAware Approximate
06:28PM 61.1667 -150.3667 206° Southwest 270 311 9,300  Level Anchorage Center
06:29PM 61.1167 -150.4167 196° South 280 322 10,900 2,100 Climbing Anchorage Center
06:30PM 61.0333 -150.4667 201° Southwest 310 357 13,600 2,400 Climbing Anchorage Center
06:31PM 60.9500 -150.5333 198° South 330 380 15,800 2,100 Climbing Anchorage Center
06:32PM 60.8500 -150.6000 201° Southwest 330 380 17,900 2,040 Climbing Anchorage Center
06:33PM 60.7667 -150.6667 201° Southwest 340 391 20,000 1,980 Climbing Anchorage Center
06:34PM 60.6833 -150.7333 202° Southwest 360 414 21,900 1,740 Climbing Anchorage Center
06:35PM 60.5833 -150.8167 198° South 360 414 23,600 1,080 Climbing Anchorage Center
06:36PM 60.4833 -150.8833 199° South 380 437 24,100 600 Climbing Anchorage Center
06:37PM 60.3667 -150.9667 202° Southwest 410 472 24,900 840 Climbing Anchorage Center
06:38PM 60.2667 -151.0500 200° South 420 483 25,900 1,140 Climbing Anchorage Center
06:39PM 60.1500 -151.1333 200° South 430 495 27,300 1,200 Climbing Anchorage Center
06:40PM 60.0333 -151.2167 200° South 440 506 28,400 1,260 Climbing Anchorage Center
06:41PM 59.9167 -151.3000 196° South 440 506 29,900 1,200 Climbing Anchorage Center
06:42PM 59.8000 -151.3667 200° South 440 506 30,900 1,080 Climbing Anchorage Center
06:43PM 59.6833 -151.4500 176° South 430 495 32,100 1,020 Climbing Anchorage Center
06:44PM 59.5667 -151.4333 176° South 440 506 33,000 840 Climbing Anchorage Center
06:45PM 59.4500 -151.4167 176° South 440 506 33,800 780 Climbing Anchorage Center
06:46PM 59.3167 -151.4000 180° South 430 495 34,600 540 Climbing Anchorage Center
06:47PM 59.2000 -151.4000 176° South 430 495 35,000 180 Climbing Anchorage Center
06:48PM 59.0833 -151.3833 177° South 430 495 35,000  Level Anchorage Center
06:49PM 58.9333 -151.3667 176° South 430 495 35,000  Level Anchorage Center
06:50PM 58.8167 -151.3500 176° South 430 495 35,000  Level Anchorage Center
06:51PM 58.7000 -151.3333 180° South 430 495 35,000  Level Anchorage Center
06:52PM 58.5667 -151.3333 176° South 430 495 35,000  Level Anchorage Center
06:53PM 58.4500 -151.3167 176° South 430 495 35,000  Level Anchorage Center
06:54PM 58.3333 -151.3000 180° South 430 495 35,000  Level Anchorage Center
06:55PM 58.2167 -151.3000 176° South 430 495 35,000  Level Anchorage Center
06:56PM 58.1000 -151.2833 176° South 430 495 35,000  Level Anchorage Center
06:57PM 57.9667 -151.2667 176° South 440 506 35,000  Level Anchorage Center
06:58PM 57.8500 -151.2500 176° South 430 495 35,000  Level Anchorage Center
06:59PM 57.7333 -151.2333 176° South 430 495 35,000  Level Anchorage Center
07:00PM 57.6000 -151.2167 180° South 440 506 35,000  Level Anchorage Center
07:01PM 57.4833 -151.2167 180° South 430 495 35,000  Level Anchorage Center
07:02PM 57.3667 -151.2167 176° South 440 506 35,000  Level Anchorage Center
07:03PM 57.2333 -151.2000 176° South 440 506 35,000  Level Anchorage Center
07:04PM 57.1167 -151.1833 178° South 440 506 35,000  Level Anchorage Center
07:07PM 56.8500 -151.1667 176° South 430 495 35,000  Level Anchorage Center
07:08PM 56.7333 -151.1500 180° South 440 506 35,000  Level Anchorage Center
07:09PM 56.6167 -151.1500 177° South 440 506 35,000  Level Anchorage Center
07:24PM 55.0000 -151.0000 180° South 429 494 35,000  Level Oakland Oceanic (ODAPS)
08:05PM 50.0000 -151.0000 180° South 429 494 35,000  Level Oakland Oceanic (ODAPS)
08:48PM 45.0000 -151.0000 189° South 423 487 35,000  Level Oakland Oceanic (ODAPS)
09:31PM 40.0000 -152.0000 189° South 444 511 35,000  Level Oakland Oceanic (ODAPS)
10:12PM 35.0000 -153.0000 190° South 455 524 37,000  Climbing Oakland Oceanic (ODAPS)
10:52PM 30.0000 -154.0000 205° Southwest 460 529 37,000  Level Oakland Oceanic (ODAPS)
11:32PM 25.1333 -156.4500 203° Southwest 460 529 37,000  Level Honolulu Center
11:36PM 24.6667 -156.6667 195° South 460 529 37,000  Level Honolulu Center
11:37PM 24.5500 -156.7000 193° South 460 529 37,000  Level Honolulu Center
11:38PM 24.4167 -156.7333 195° South 460 529 37,000  Level Honolulu Center
11:39PM 24.3000 -156.7667 193° South 460 529 37,000  Level Honolulu Center
11:40PM 24.1667 -156.8000 195° South 460 529 37,000  Level Honolulu Center
11:41PM 24.0500 -156.8333 193° South 470 541 37,000  Level Honolulu Center
11:42PM 23.9167 -156.8667 195° South 460 529 37,000  Level Honolulu Center
11:43PM 23.8000 -156.9000 193° South 470 541 37,000  Level Honolulu Center
11:44PM 23.6667 -156.9333 193° South 460 529 37,000  Level Honolulu Center
11:45PM 23.5333 -156.9667 187° South 470 541 37,000  Level Honolulu Center
11:46PM 23.4167 -156.9833 193° South 470 541 37,000  Level Honolulu Center
11:47PM 23.2833 -157.0167 202° Southwest 460 529 37,000  Level Honolulu Center
11:48PM 23.1667 -157.0667 187° South 470 541 37,000  Level Honolulu Center
11:49PM 23.0333 -157.0833 195° South 470 541 37,000  Level Honolulu Center
11:50PM 22.9167 -157.1167 193° South 460 529 37,000 -840 Level Honolulu Center
11:51PM 22.7833 -157.1500 193° South 460 529 35,400 -2,280 Descending Honolulu Center
11:52PM 22.6500 -157.1833 195° South 460 529 32,500 -2,580 Descending Honolulu Center
11:53PM 22.5333 -157.2167 195° South 460 529 30,300 -2,280 Descending Honolulu Center
11:54PM 22.4167 -157.2500 193° South 450 518 28,000 -2,100 Descending Honolulu Center
11:55PM 22.2833 -157.2833 189° South 440 506 26,100 -2,040 Descending Honolulu Center
11:56PM 22.1833 -157.3000 195° South 430 495 23,900 -2,040 Descending Honolulu Center
11:57PM 22.0667 -157.3333 193° South 400 460 22,000 -1,980 Descending Honolulu Center
11:58PM 21.9333 -157.3667 197° South 390 449 20,000 -1,920 Descending Honolulu Center
11:59PM 21.8333 -157.4000 189° South 370 426 18,200 -1,800 Descending Honolulu Center
12:00AM 21.7333 -157.4167 200° South 360 414 16,400 -1,860 Descending Honolulu Center
12:01AM 21.6500 -157.4500 189° South 360 414 14,500 -1,920 Descending Honolulu Center
12:02AM 21.5500 -157.4667 197° South 350 403 12,600 -1,860 Descending Honolulu Center
12:03AM 21.4500 -157.5000 237° Southwest 340 391 10,800 -1,320 Descending Honolulu Center
12:04AM 21.4000 -157.5833 231° Southwest 330 380 10,000 -480 Descending Honolulu Center
12:05AM 21.3500 -157.6500 247° West 310 357 9,900 -420 Descending Honolulu Center
12:06AM 21.3167 -157.7333 231° Southwest 280 322 9,200 -900 Descending Honolulu Center
12:07AM 21.2667 -157.8000 255° West 250 288 8,100 -1,200 Descending Honolulu Center
12:08AM 21.2500 -157.8667 258° West 260 299 6,900 -1,620 Descending Honolulu Center
12:09AM 21.2333 -157.9500 270° West 260 299 4,900 -1,740 Descending Honolulu Center
12:10AM 21.2333 -158.0167 290° West 230 265 3,500 -960 Descending Honolulu Center
12:11AM 21.2500 -158.0667 360° North 160 184 3,000 -600 Descending Honolulu Center
12:12AM 21.3167 -158.0667 90° East 190 219 2,300 -600 Descending Honolulu Center
12:13AM 21.3167 -158.0167 90° East 160 184 1,800 -900 Descending Honolulu Center
12:14AM 21.3167 -157.9667 90° East 150 173 600 -1,200 Descending Honolulu Center